WIDD/BTH METAR and TAF weather

Enter ICAO airport designator
Station Type Date Time Source
WIDD METAR 2021/03/05 00:00 UTC NOAA

WIDD 050000Z 04008KT 9999 SCT014 28/24 Q1013 NOSIG


Station Type Date Time Source
WIDD Decoded METAR 2021/03/05 00:00 UTC NOAA

Station name not available
Mar 04, 2021 - 07:00 PM EST / 2021.03.05 0000 UTC
Wind: from the NE (040 degrees) at 9 MPH (8 KT):0
Visibility: greater than 7 mile(s):0
Sky conditions: partly cloudy
Temperature: 82 F (28 C)
Dew Point: 75 F (24 C)
Relative Humidity: 78%
Pressure (altimeter): 29.91 in. Hg (1013 hPa)
ob: WIDD 050000Z 04008KT 9999 SCT014 28/24 Q1013 NOSIG
cycle: 0

Station Type Date Time Source
WIDD TAF 2021/03/04 12:00 UTC NOAA

TAF WIDD 041100Z 0412/0512 04010KT 9999 FEW014=

Example: see airport list